AUA143M LOWW-EDDP
Flight info
| Callsign | AUA143M |
|---|---|
| Flight time | 1h 0m |
| Altitude | 30000 |
| Route | UNGU2C/29 LANUX DCT VLM DCT BEFRE DCT IVQOQ T951 YAWOY YAWOY1V |
| Aircraft | A320/M-SDE3FGHIRWY/LB1 |
Departure
| Time | 2026-04-25 21:22 |
|---|---|
| Airport | Vienna International Airport (LOWW) |
Arrival
| Time | 2026-04-25 22:22 |
|---|---|
| Airport | Leipzig/Halle Airport (EDDP) |
| Time | Latitude | Longitude | Altitude | Speed | Heading |
|---|---|---|---|---|---|
| 2026-04-25 21:01 | 48.11656 | 16.56444 | 625 ft | 0 kts | 204° |
| 2026-04-25 21:16 | 48.11654 | 16.56443 | 609 ft | 3 kts | 204° |
| 2026-04-25 21:17 | 48.11600 | 16.56407 | 614 ft | 8 kts | 204° |
| 2026-04-25 21:17 | 48.11543 | 16.56373 | 612 ft | 11 kts | 192° |
| 2026-04-25 21:17 | 48.11481 | 16.56443 | 623 ft | 18 kts | 116° |
| 2026-04-25 21:17 | 48.11427 | 16.56608 | 624 ft | 17 kts | 116° |
| 2026-04-25 21:18 | 48.11379 | 16.56754 | 621 ft | 15 kts | 116° |
| 2026-04-25 21:18 | 48.11340 | 16.56874 | 623 ft | 11 kts | 116° |
| 2026-04-25 21:18 | 48.11291 | 16.57035 | 623 ft | 25 kts | 113° |
| 2026-04-25 21:18 | 48.11233 | 16.57218 | 627 ft | 15 kts | 115° |
| 2026-04-25 21:19 | 48.11187 | 16.57361 | 623 ft | 16 kts | 116° |
| 2026-04-25 21:19 | 48.11145 | 16.57489 | 619 ft | 11 kts | 116° |
| 2026-04-25 21:19 | 48.11111 | 16.57576 | 623 ft | 9 kts | 116° |
| 2026-04-25 21:19 | 48.11076 | 16.57643 | 619 ft | 8 kts | 153° |
| 2026-04-25 21:20 | 48.11031 | 16.57639 | 617 ft | 5 kts | 204° |
| 2026-04-25 21:20 | 48.11023 | 16.57634 | 626 ft | 0 kts | 205° |
| 2026-04-25 21:20 | 48.10975 | 16.57600 | 631 ft | 12 kts | 205° |
| 2026-04-25 21:20 | 48.10925 | 16.57525 | 629 ft | 11 kts | 259° |
| 2026-04-25 21:21 | 48.10938 | 16.57460 | 622 ft | 0 kts | 296° |
| 2026-04-25 21:21 | 48.10965 | 16.57376 | 628 ft | 37 kts | 295° |
| 2026-04-25 21:21 | 48.11183 | 16.56700 | 635 ft | 106 kts | 296° |
| 2026-04-25 21:21 | 48.11593 | 16.55448 | 650 ft | 156 kts | 295° |
| 2026-04-25 21:22 | 48.12038 | 16.53999 | 1388 ft | 152 kts | 284° |
| 2026-04-25 21:22 | 48.11953 | 16.52399 | 2065 ft | 169 kts | 255° |
| 2026-04-25 21:22 | 48.11124 | 16.50925 | 2423 ft | 205 kts | 225° |
| 2026-04-25 21:22 | 48.09940 | 16.49606 | 2957 ft | 216 kts | 224° |
| 2026-04-25 21:23 | 48.08717 | 16.48272 | 3635 ft | 218 kts | 223° |
| 2026-04-25 21:23 | 48.07619 | 16.46726 | 4351 ft | 216 kts | 242° |
| 2026-04-25 21:23 | 48.06901 | 16.44670 | 4876 ft | 235 kts | 250° |
| 2026-04-25 21:23 | 48.06195 | 16.42331 | 5361 ft | 257 kts | 250° |
| 2026-04-25 21:24 | 48.05456 | 16.39840 | 6198 ft | 265 kts | 249° |
| 2026-04-25 21:24 | 48.04702 | 16.37308 | 7120 ft | 269 kts | 249° |
| 2026-04-25 21:24 | 48.03932 | 16.34747 | 8087 ft | 271 kts | 250° |
| 2026-04-25 21:24 | 48.03396 | 16.32097 | 9021 ft | 270 kts | 265° |
| 2026-04-25 21:25 | 48.03391 | 16.29301 | 9957 ft | 270 kts | 276° |
| 2026-04-25 21:25 | 48.03540 | 16.26432 | 10498 ft | 288 kts | 279° |
| 2026-04-25 21:25 | 48.04219 | 16.23529 | 10761 ft | 309 kts | 303° |
| 2026-04-25 21:25 | 48.05816 | 16.21241 | 11099 ft | 331 kts | 328° |
| 2026-04-25 21:26 | 48.07925 | 16.19696 | 11774 ft | 340 kts | 332° |
| 2026-04-25 21:26 | 48.10073 | 16.18191 | 12548 ft | 344 kts | 332° |
| 2026-04-25 21:26 | 48.12256 | 16.16666 | 13327 ft | 348 kts | 332° |
| 2026-04-25 21:26 | 48.14461 | 16.15118 | 14073 ft | 352 kts | 332° |
| 2026-04-25 21:27 | 48.16682 | 16.13548 | 14777 ft | 355 kts | 332° |
| 2026-04-25 21:27 | 48.18917 | 16.11962 | 15519 ft | 357 kts | 332° |
| 2026-04-25 21:27 | 48.21169 | 16.10356 | 16213 ft | 359 kts | 332° |
| 2026-04-25 21:27 | 48.23437 | 16.08737 | 16875 ft | 363 kts | 332° |
| 2026-04-25 21:28 | 48.25726 | 16.07107 | 17529 ft | 367 kts | 332° |
| 2026-04-25 21:28 | 48.28046 | 16.05453 | 18160 ft | 370 kts | 332° |
| 2026-04-25 21:28 | 48.30385 | 16.03789 | 18738 ft | 373 kts | 332° |
| 2026-04-25 21:28 | 48.32738 | 16.02111 | 19288 ft | 376 kts | 332° |
| 2026-04-25 21:29 | 48.34307 | 16.00991 | 19642 ft | 378 kts | 332° |
| 2026-04-25 21:29 | 48.37504 | 15.98709 | 20361 ft | 382 kts | 332° |
| 2026-04-25 21:29 | 48.39098 | 15.97569 | 20709 ft | 384 kts | 332° |
| 2026-04-25 21:29 | 48.41525 | 15.95829 | 21240 ft | 387 kts | 332° |
| 2026-04-25 21:30 | 48.43957 | 15.94085 | 21815 ft | 389 kts | 332° |
| 2026-04-25 21:30 | 48.46411 | 15.92323 | 22356 ft | 391 kts | 332° |
| 2026-04-25 21:30 | 48.48876 | 15.90552 | 22874 ft | 394 kts | 332° |
| 2026-04-25 21:30 | 48.51354 | 15.88775 | 23361 ft | 397 kts | 332° |
| 2026-04-25 21:31 | 48.53869 | 15.86968 | 23802 ft | 400 kts | 332° |
| 2026-04-25 21:31 | 48.56367 | 15.85170 | 23959 ft | 401 kts | 332° |
| 2026-04-25 21:31 | 48.58885 | 15.83354 | 24006 ft | 400 kts | 332° |
| 2026-04-25 21:31 | 48.61396 | 15.81543 | 24007 ft | 400 kts | 332° |
| 2026-04-25 21:32 | 48.63908 | 15.79727 | 24011 ft | 400 kts | 333° |
| 2026-04-25 21:32 | 48.66425 | 15.77901 | 24030 ft | 400 kts | 332° |
| 2026-04-25 21:32 | 48.68929 | 15.76080 | 24015 ft | 398 kts | 332° |
| 2026-04-25 21:32 | 48.71431 | 15.74258 | 24269 ft | 401 kts | 332° |
| 2026-04-25 21:33 | 48.73953 | 15.72423 | 24710 ft | 402 kts | 332° |
| 2026-04-25 21:33 | 48.76487 | 15.70581 | 25135 ft | 404 kts | 332° |
| 2026-04-25 21:33 | 48.79030 | 15.68732 | 25555 ft | 406 kts | 332° |
| 2026-04-25 21:33 | 48.81587 | 15.66870 | 25955 ft | 408 kts | 332° |
| 2026-04-25 21:34 | 48.84156 | 15.64998 | 26355 ft | 411 kts | 332° |
| 2026-04-25 21:34 | 48.86702 | 15.63137 | 26742 ft | 412 kts | 332° |
| 2026-04-25 21:34 | 48.89293 | 15.61243 | 27120 ft | 414 kts | 333° |
| 2026-04-25 21:34 | 48.91917 | 15.59406 | 27516 ft | 417 kts | 333° |
| 2026-04-25 21:35 | 48.94577 | 15.57632 | 27901 ft | 418 kts | 334° |
| 2026-04-25 21:35 | 48.97258 | 15.55889 | 28256 ft | 420 kts | 334° |
| 2026-04-25 21:35 | 48.99954 | 15.54148 | 28591 ft | 422 kts | 335° |
| 2026-04-25 21:35 | 49.02659 | 15.52395 | 28922 ft | 424 kts | 335° |
| 2026-04-25 21:36 | 49.05410 | 15.50595 | 29269 ft | 426 kts | 334° |
| 2026-04-25 21:36 | 49.08127 | 15.48796 | 29573 ft | 427 kts | 334° |
| 2026-04-25 21:36 | 49.10854 | 15.46974 | 29941 ft | 427 kts | 334° |
| 2026-04-25 21:36 | 49.13561 | 15.45158 | 30022 ft | 422 kts | 334° |
| 2026-04-25 21:37 | 49.18006 | 15.42176 | 30026 ft | 418 kts | 334° |
| 2026-04-25 21:37 | 49.24185 | 15.38034 | 30026 ft | 417 kts | 334° |
| 2026-04-25 21:38 | 49.29501 | 15.34471 | 30026 ft | 417 kts | 334° |
| 2026-04-25 21:38 | 49.34813 | 15.30892 | 30023 ft | 417 kts | 334° |
| 2026-04-25 21:39 | 49.40124 | 15.27304 | 30017 ft | 417 kts | 334° |
| 2026-04-25 21:39 | 49.45428 | 15.23717 | 30049 ft | 416 kts | 334° |
| 2026-04-25 21:40 | 49.50714 | 15.20123 | 30043 ft | 415 kts | 334° |
| 2026-04-25 21:40 | 49.55991 | 15.16542 | 30035 ft | 414 kts | 334° |
| 2026-04-25 21:41 | 49.61041 | 15.12366 | 30028 ft | 412 kts | 323° |
| 2026-04-25 21:41 | 49.65711 | 15.07251 | 30026 ft | 412 kts | 323° |
| 2026-04-25 21:42 | 49.70369 | 15.02142 | 30037 ft | 410 kts | 323° |
| 2026-04-25 21:42 | 49.74981 | 14.97074 | 30035 ft | 408 kts | 323° |
| 2026-04-25 21:43 | 49.79594 | 14.91974 | 30035 ft | 407 kts | 323° |
| 2026-04-25 21:43 | 49.84193 | 14.86862 | 30029 ft | 407 kts | 323° |
| 2026-04-25 21:44 | 49.88790 | 14.81737 | 30027 ft | 406 kts | 323° |
| 2026-04-25 21:44 | 49.93498 | 14.76506 | 30051 ft | 423 kts | 323° |
| 2026-04-25 21:45 | 49.95885 | 14.73855 | 30019 ft | 422 kts | 323° |
| 2026-04-25 21:45 | 50.00647 | 14.68545 | 30027 ft | 421 kts | 323° |
| 2026-04-25 21:46 | 50.05400 | 14.63222 | 30030 ft | 421 kts | 323° |
| 2026-04-25 21:46 | 50.10145 | 14.57889 | 30030 ft | 421 kts | 323° |
| 2026-04-25 21:47 | 50.14865 | 14.52582 | 30028 ft | 421 kts | 323° |
| 2026-04-25 21:47 | 50.19601 | 14.47241 | 30026 ft | 420 kts | 323° |
| 2026-04-25 21:48 | 50.24339 | 14.41868 | 30025 ft | 420 kts | 323° |
| 2026-04-25 21:48 | 50.29071 | 14.36495 | 30003 ft | 421 kts | 323° |
| 2026-04-25 21:49 | 50.33808 | 14.31119 | 30007 ft | 421 kts | 323° |
| 2026-04-25 21:49 | 50.38540 | 14.25725 | 30011 ft | 421 kts | 323° |
| 2026-04-25 21:50 | 50.43274 | 14.20312 | 30014 ft | 421 kts | 323° |
| 2026-04-25 21:50 | 50.48004 | 14.14901 | 30067 ft | 421 kts | 323° |
| 2026-04-25 21:51 | 50.52734 | 14.09484 | 30065 ft | 419 kts | 323° |
| 2026-04-25 21:51 | 50.57412 | 14.04094 | 29501 ft | 413 kts | 323° |
| 2026-04-25 21:51 | 50.59689 | 14.01466 | 29296 ft | 395 kts | 323° |
| 2026-04-25 21:52 | 50.61830 | 13.98989 | 29194 ft | 378 kts | 323° |
| 2026-04-25 21:52 | 50.63949 | 13.96531 | 27923 ft | 385 kts | 323° |
| 2026-04-25 21:52 | 50.66180 | 13.93947 | 26913 ft | 398 kts | 323° |
| 2026-04-25 21:52 | 50.68404 | 13.91366 | 26093 ft | 406 kts | 322° |
| 2026-04-25 21:53 | 50.70711 | 13.88688 | 25558 ft | 407 kts | 322° |
| 2026-04-25 21:53 | 50.72956 | 13.86078 | 25080 ft | 405 kts | 322° |
| 2026-04-25 21:53 | 50.75244 | 13.83417 | 24624 ft | 403 kts | 322° |
| 2026-04-25 21:53 | 50.77491 | 13.80803 | 24155 ft | 398 kts | 322° |
| 2026-04-25 21:54 | 50.79710 | 13.78215 | 23705 ft | 395 kts | 322° |
| 2026-04-25 21:54 | 50.81886 | 13.75678 | 23169 ft | 392 kts | 322° |
| 2026-04-25 21:54 | 50.84094 | 13.73101 | 22621 ft | 388 kts | 322° |
| 2026-04-25 21:54 | 50.86232 | 13.70603 | 22098 ft | 385 kts | 322° |
| 2026-04-25 21:55 | 50.88376 | 13.68090 | 21577 ft | 382 kts | 322° |
| 2026-04-25 21:55 | 50.90499 | 13.65597 | 21067 ft | 378 kts | 322° |
| 2026-04-25 21:55 | 50.92606 | 13.63124 | 20559 ft | 375 kts | 322° |
| 2026-04-25 21:55 | 50.94691 | 13.60673 | 20067 ft | 372 kts | 322° |
| 2026-04-25 21:56 | 50.96764 | 13.58230 | 19576 ft | 370 kts | 322° |
| 2026-04-25 21:56 | 50.98156 | 13.56588 | 19253 ft | 368 kts | 322° |
| 2026-04-25 21:56 | 51.00860 | 13.53404 | 18627 ft | 364 kts | 321° |
| 2026-04-25 21:56 | 51.02893 | 13.51005 | 18196 ft | 361 kts | 321° |
| 2026-04-25 21:57 | 51.04892 | 13.48640 | 17659 ft | 355 kts | 321° |
| 2026-04-25 21:57 | 51.06853 | 13.46319 | 17096 ft | 350 kts | 321° |
| 2026-04-25 21:57 | 51.08793 | 13.44016 | 16455 ft | 345 kts | 321° |
| 2026-04-25 21:57 | 51.10687 | 13.41708 | 15823 ft | 341 kts | 317° |
| 2026-04-25 21:58 | 51.12180 | 13.38832 | 15220 ft | 337 kts | 300° |
| 2026-04-25 21:58 | 51.13202 | 13.35473 | 14549 ft | 336 kts | 296° |
| 2026-04-25 21:58 | 51.14176 | 13.32103 | 13930 ft | 335 kts | 296° |
| 2026-04-25 21:58 | 51.15137 | 13.28745 | 13267 ft | 332 kts | 296° |
| 2026-04-25 21:59 | 51.16084 | 13.25416 | 12639 ft | 329 kts | 296° |
| 2026-04-25 21:59 | 51.17024 | 13.22111 | 12004 ft | 325 kts | 295° |
| 2026-04-25 21:59 | 51.17856 | 13.18780 | 11374 ft | 324 kts | 285° |
| 2026-04-25 22:00 | 51.17713 | 13.12836 | 10357 ft | 326 kts | 265° |
| 2026-04-25 22:00 | 51.17214 | 13.08223 | 10168 ft | 304 kts | 265° |
| 2026-04-25 22:00 | 51.16853 | 13.04993 | 10050 ft | 288 kts | 265° |
| 2026-04-25 22:00 | 51.16505 | 13.01979 | 9922 ft | 265 kts | 265° |
| 2026-04-25 22:01 | 51.16171 | 12.99194 | 9594 ft | 250 kts | 265° |
| 2026-04-25 22:01 | 51.15839 | 12.96508 | 8955 ft | 246 kts | 265° |
| 2026-04-25 22:01 | 51.15506 | 12.93831 | 8410 ft | 247 kts | 265° |
| 2026-04-25 22:01 | 51.15301 | 12.92060 | 8152 ft | 244 kts | 269° |
| 2026-04-25 22:02 | 51.15800 | 12.88763 | 8011 ft | 236 kts | 301° |
| 2026-04-25 22:02 | 51.16714 | 12.86575 | 8010 ft | 238 kts | 304° |
| 2026-04-25 22:02 | 51.17665 | 12.84429 | 7847 ft | 236 kts | 305° |
| 2026-04-25 22:02 | 51.18611 | 12.82305 | 7405 ft | 235 kts | 305° |
| 2026-04-25 22:03 | 51.19553 | 12.80183 | 7013 ft | 234 kts | 305° |
| 2026-04-25 22:03 | 51.20491 | 12.78067 | 6591 ft | 233 kts | 305° |
| 2026-04-25 22:03 | 51.21419 | 12.75964 | 6174 ft | 232 kts | 305° |
| 2026-04-25 22:03 | 51.22345 | 12.73868 | 5749 ft | 230 kts | 305° |
| 2026-04-25 22:04 | 51.23271 | 12.71792 | 5324 ft | 228 kts | 307° |
| 2026-04-25 22:04 | 51.24491 | 12.70231 | 5003 ft | 229 kts | 335° |
| 2026-04-25 22:04 | 51.26115 | 12.70017 | 4983 ft | 247 kts | 4° |
| 2026-04-25 22:04 | 51.27703 | 12.71253 | 4983 ft | 266 kts | 33° |
| 2026-04-25 22:05 | 51.28809 | 12.73717 | 4983 ft | 284 kts | 62° |
| 2026-04-25 22:05 | 51.29142 | 12.76885 | 4987 ft | 296 kts | 86° |
| 2026-04-25 22:05 | 51.29054 | 12.80190 | 4983 ft | 298 kts | 90° |
| 2026-04-25 22:05 | 51.28917 | 12.83498 | 4983 ft | 298 kts | 90° |
| 2026-04-25 22:06 | 51.28769 | 12.86804 | 4985 ft | 298 kts | 90° |
| 2026-04-25 22:06 | 51.28618 | 12.90109 | 4980 ft | 298 kts | 90° |
| 2026-04-25 22:06 | 51.28468 | 12.93418 | 4980 ft | 299 kts | 90° |
| 2026-04-25 22:06 | 51.28320 | 12.96691 | 4980 ft | 298 kts | 90° |
| 2026-04-25 22:07 | 51.28168 | 13.00042 | 4981 ft | 300 kts | 90° |
| 2026-04-25 22:07 | 51.28070 | 13.02244 | 4978 ft | 301 kts | 90° |
| 2026-04-25 22:07 | 51.27874 | 13.06674 | 4977 ft | 302 kts | 90° |
| 2026-04-25 22:07 | 51.27855 | 13.10044 | 4972 ft | 295 kts | 74° |
| 2026-04-25 22:08 | 51.28578 | 13.12942 | 4972 ft | 278 kts | 46° |
| 2026-04-25 22:08 | 51.29962 | 13.14888 | 4970 ft | 258 kts | 17° |
| 2026-04-25 22:08 | 51.31630 | 13.15782 | 4986 ft | 251 kts | 6° |
| 2026-04-25 22:08 | 51.33294 | 13.16448 | 4969 ft | 237 kts | 5° |
| 2026-04-25 22:09 | 51.34834 | 13.17084 | 4975 ft | 222 kts | 5° |
| 2026-04-25 22:09 | 51.36309 | 13.17706 | 4970 ft | 218 kts | 5° |
| 2026-04-25 22:09 | 51.37768 | 13.18324 | 4972 ft | 217 kts | 5° |
| 2026-04-25 22:09 | 51.39228 | 13.18950 | 4969 ft | 217 kts | 5° |
| 2026-04-25 22:10 | 51.40689 | 13.19571 | 4969 ft | 216 kts | 5° |
| 2026-04-25 22:10 | 51.42144 | 13.19979 | 4979 ft | 206 kts | 347° |
| 2026-04-25 22:10 | 51.43402 | 13.19175 | 4977 ft | 193 kts | 315° |
| 2026-04-25 22:10 | 51.44065 | 13.17373 | 4973 ft | 194 kts | 289° |
| 2026-04-25 22:11 | 51.44385 | 13.15265 | 4975 ft | 195 kts | 285° |
| 2026-04-25 22:11 | 51.44653 | 13.13121 | 4975 ft | 196 kts | 285° |
| 2026-04-25 22:11 | 51.44914 | 13.10973 | 4973 ft | 196 kts | 285° |
| 2026-04-25 22:11 | 51.45076 | 13.08809 | 4882 ft | 195 kts | 279° |
| 2026-04-25 22:12 | 51.45138 | 13.06640 | 4542 ft | 195 kts | 278° |
| 2026-04-25 22:12 | 51.45186 | 13.04451 | 4157 ft | 198 kts | 277° |
| 2026-04-25 22:12 | 51.45231 | 13.02238 | 3813 ft | 200 kts | 277° |
| 2026-04-25 22:12 | 51.45245 | 13.01484 | 3697 ft | 201 kts | 277° |
| 2026-04-25 22:13 | 51.45318 | 12.97745 | 3172 ft | 203 kts | 278° |
| 2026-04-25 22:13 | 51.45363 | 12.95483 | 2994 ft | 204 kts | 277° |
| 2026-04-25 22:13 | 51.45410 | 12.93200 | 2983 ft | 205 kts | 277° |
| 2026-04-25 22:13 | 51.45456 | 12.90919 | 2984 ft | 206 kts | 277° |
| 2026-04-25 22:14 | 51.45501 | 12.88617 | 2983 ft | 206 kts | 277° |
| 2026-04-25 22:14 | 51.45531 | 12.87094 | 2984 ft | 206 kts | 277° |
| 2026-04-25 22:14 | 51.45577 | 12.84800 | 2983 ft | 206 kts | 277° |
| 2026-04-25 22:14 | 51.45624 | 12.82510 | 2982 ft | 206 kts | 277° |
| 2026-04-25 22:15 | 51.45671 | 12.80226 | 2985 ft | 205 kts | 277° |
| 2026-04-25 22:15 | 51.45623 | 12.77926 | 2987 ft | 207 kts | 272° |
| 2026-04-25 22:15 | 51.45524 | 12.75607 | 2995 ft | 209 kts | 272° |
| 2026-04-25 22:16 | 51.45328 | 12.70982 | 2998 ft | 207 kts | 272° |
| 2026-04-25 22:16 | 51.45222 | 12.68680 | 2996 ft | 207 kts | 272° |
| 2026-04-25 22:16 | 51.45118 | 12.66381 | 2994 ft | 207 kts | 272° |
| 2026-04-25 22:16 | 51.45018 | 12.64075 | 2994 ft | 208 kts | 272° |
| 2026-04-25 22:17 | 51.44919 | 12.61755 | 2998 ft | 208 kts | 272° |
| 2026-04-25 22:17 | 51.44819 | 12.59438 | 3003 ft | 209 kts | 272° |
| 2026-04-25 22:17 | 51.44719 | 12.57122 | 3002 ft | 207 kts | 272° |
| 2026-04-25 22:17 | 51.44619 | 12.54823 | 2997 ft | 207 kts | 273° |
| 2026-04-25 22:18 | 51.44518 | 12.52520 | 3003 ft | 207 kts | 273° |
| 2026-04-25 22:18 | 51.44419 | 12.50219 | 2966 ft | 207 kts | 273° |
| 2026-04-25 22:18 | 51.44322 | 12.47912 | 2864 ft | 208 kts | 273° |
| 2026-04-25 22:18 | 51.44199 | 12.45594 | 2668 ft | 209 kts | 272° |
| 2026-04-25 22:19 | 51.44086 | 12.43304 | 2426 ft | 204 kts | 273° |
| 2026-04-25 22:19 | 51.44011 | 12.41143 | 2111 ft | 187 kts | 273° |
| 2026-04-25 22:19 | 51.43940 | 12.39171 | 1881 ft | 166 kts | 273° |
| 2026-04-25 22:19 | 51.43854 | 12.37447 | 1775 ft | 145 kts | 273° |
| 2026-04-25 22:20 | 51.43775 | 12.35959 | 1664 ft | 127 kts | 274° |
| 2026-04-25 22:20 | 51.43719 | 12.34574 | 1381 ft | 123 kts | 274° |
| 2026-04-25 22:20 | 51.43673 | 12.33212 | 1240 ft | 122 kts | 272° |
| 2026-04-25 22:20 | 51.43592 | 12.31860 | 1134 ft | 122 kts | 272° |
| 2026-04-25 22:21 | 51.43540 | 12.30508 | 955 ft | 120 kts | 272° |
| 2026-04-25 22:21 | 51.43469 | 12.29166 | 802 ft | 122 kts | 270° |
| 2026-04-25 22:21 | 51.43404 | 12.27796 | 639 ft | 124 kts | 271° |
| 2026-04-25 22:21 | 51.43342 | 12.26415 | 488 ft | 124 kts | 272° |
| 2026-04-25 22:22 | 51.43299 | 12.25196 | 457 ft | 88 kts | 267° |
| 2026-04-25 22:22 | 51.43264 | 12.24476 | 447 ft | 51 kts | 266° |
| 2026-04-25 22:22 | 51.43235 | 12.23985 | 440 ft | 36 kts | 255° |
| 2026-04-25 22:22 | 51.43144 | 12.23678 | 450 ft | 29 kts | 237° |
| 2026-04-25 22:23 | 51.43069 | 12.23493 | 447 ft | 13 kts | 233° |
| 2026-04-25 22:23 | 51.42985 | 12.23438 | 444 ft | 15 kts | 180° |
| 2026-04-25 22:23 | 51.42969 | 12.23440 | 443 ft | 0 kts | 176° |
| 2026-04-25 22:24 | 51.42944 | 12.23440 | 430 ft | 14 kts | 184° |
| 2026-04-25 22:24 | 51.42900 | 12.23319 | 434 ft | 10 kts | 264° |
| 2026-04-25 22:25 | 51.42891 | 12.23194 | 439 ft | 12 kts | 264° |
| 2026-04-25 22:25 | 51.42881 | 12.23035 | 438 ft | 16 kts | 265° |
| 2026-04-25 22:25 | 51.42871 | 12.22839 | 431 ft | 18 kts | 265° |
| 2026-04-25 22:25 | 51.42861 | 12.22630 | 429 ft | 20 kts | 266° |
| 2026-04-25 22:26 | 51.42852 | 12.22388 | 437 ft | 23 kts | 267° |
| 2026-04-25 22:26 | 51.42842 | 12.22121 | 436 ft | 25 kts | 266° |
| 2026-04-25 22:26 | 51.42825 | 12.21821 | 424 ft | 28 kts | 263° |
| 2026-04-25 22:26 | 51.42810 | 12.21500 | 430 ft | 28 kts | 266° |
| 2026-04-25 22:27 | 51.42790 | 12.21265 | 429 ft | 18 kts | 231° |
| 2026-04-25 22:27 | 51.42685 | 12.21198 | 426 ft | 14 kts | 194° |
| 2026-04-25 22:27 | 51.42578 | 12.21153 | 437 ft | 21 kts | 195° |
| 2026-04-25 22:27 | 51.42443 | 12.21094 | 443 ft | 19 kts | 195° |
| 2026-04-25 22:28 | 51.42311 | 12.21037 | 428 ft | 20 kts | 196° |
| 2026-04-25 22:28 | 51.42183 | 12.20997 | 419 ft | 17 kts | 165° |
| 2026-04-25 22:28 | 51.42124 | 12.21104 | 423 ft | 12 kts | 140° |
| 2026-04-25 22:28 | 51.42050 | 12.21105 | 429 ft | 10 kts | 195° |
| 2026-04-25 22:29 | 51.41971 | 12.21109 | 419 ft | 15 kts | 141° |
| 2026-04-25 22:29 | 51.41938 | 12.21250 | 432 ft | 12 kts | 106° |
| 2026-04-25 22:29 | 51.41938 | 12.21298 | 430 ft | 4 kts | 61° |
| 2026-04-25 22:30 | 51.42069 | 12.21365 | 432 ft | 0 kts | 15° |
| 2026-04-25 22:30 | 51.42070 | 12.21365 | 432 ft | 0 kts | 15° |